Time;durP1;ratioP1;P1;durP2;ratioP2;P2;SDS_P1;SDS_P2;PMS_P1;PMS_P2;Temp;Humidity;BMP_temperature;BMP_pressure;BME280_temperature;BME280_humidity;BME280_pressure;Samples;Min_cycle;Max_cycle;Signal;HPM_P1;HPM_P2
2021/06/23 00:01:48;;;;;;;12.97;8.80;;;19.70;99.90;;;;;;5049097;28;20385;-51
2021/06/23 00:04:13;;;;;;;12.10;8.40;;;19.60;99.90;;;;;;5048678;28;20747;-51
2021/06/23 00:06:42;;;;;;;14.32;8.10;;;19.50;99.90;;;;;;5047328;28;20760;-50
2021/06/23 00:09:07;;;;;;;13.63;9.13;;;19.10;99.90;;;;;;5049089;28;20402;-51
2021/06/23 00:11:41;;;;;;;14.73;9.70;;;19.50;99.90;;;;;;5048625;28;20438;-50
2021/06/23 00:14:08;;;;;;;14.40;9.88;;;19.50;99.90;;;;;;5049413;28;20377;-50
2021/06/23 00:16:33;;;;;;;16.08;9.85;;;19.40;99.90;;;;;;5048265;28;20855;-50
2021/06/23 00:18:59;;;;;;;16.97;10.67;;;19.40;99.90;;;;;;5048878;28;20420;-50
2021/06/23 00:21:25;;;;;;;15.57;10.18;;;19.40;99.90;;;;;;5048468;28;20930;-50
2021/06/23 00:23:50;;;;;;;16.55;10.65;;;19.40;99.90;;;;;;5048901;28;20374;-51
2021/06/23 00:26:16;;;;;;;17.27;11.53;;;19.40;99.90;;;;;;5048917;28;20390;-53
2021/06/23 00:28:42;;;;;;;22.05;11.55;;;20.40;99.90;;;;;;5048785;28;20396;-50
2021/06/23 00:31:07;;;;;;;18.40;11.70;;;19.30;99.90;;;;;;5049079;28;20807;-50
2021/06/23 00:33:35;;;;;;;17.20;11.80;;;19.30;99.90;;;;;;5048321;28;20385;-52
2021/06/23 00:36:00;;;;;;;17.55;11.90;;;19.50;99.90;;;;;;5049120;28;20385;-51
2021/06/23 00:38:26;;;;;;;21.50;12.48;;;19.50;99.90;;;;;;5048274;28;20448;-51
2021/06/23 00:40:52;;;;;;;19.67;12.70;;;19.60;99.90;;;;;;5051487;28;20381;-52
2021/06/23 00:43:18;;;;;;;16.47;11.33;;;19.50;99.90;;;;;;5052519;28;20385;-53
2021/06/23 00:45:45;;;;;;;16.58;10.63;;;19.40;99.90;;;;;;5052311;28;20377;-50
2021/06/23 00:48:21;;;;;;;16.98;10.30;;;19.50;99.90;;;;;;5052656;28;20868;-52
2021/06/23 00:50:47;;;;;;;18.70;11.00;;;19.40;99.90;;;;;;5052751;28;20468;-50
2021/06/23 00:53:14;;;;;;;22.48;11.35;;;19.50;99.90;;;;;;5052497;28;20432;-51
2021/06/23 00:55:40;;;;;;;20.38;12.00;;;19.50;99.90;;;;;;5051537;28;20992;-51
2021/06/23 00:58:06;;;;;;;20.92;11.80;;;19.40;99.90;;;;;;5052544;28;20413;-50
2021/06/23 01:00:34;;;;;;;21.00;11.90;;;19.30;99.90;;;;;;5051443;28;20382;-50
2021/06/23 01:03:02;;;;;;;16.38;11.60;;;19.30;99.90;;;;;;5052220;28;20373;-51
2021/06/23 01:05:29;;;;;;;18.58;12.50;;;19.30;99.90;;;;;;5051124;28;20717;-50
2021/06/23 01:07:55;;;;;;;22.23;13.20;;;19.30;99.90;;;;;;5052431;28;20393;-50
2021/06/23 01:10:21;;;;;;;22.02;13.10;;;19.20;99.90;;;;;;5051746;28;20923;-53
2021/06/23 01:13:08;;;;;;;23.27;12.70;;;19.20;99.90;;;;;;5052654;28;20460;-50
2021/06/23 01:15:34;;;;;;;20.55;13.20;;;19.20;99.90;;;;;;5051504;28;20503;-50
2021/06/23 01:18:00;;;;;;;21.33;13.00;;;19.10;99.90;;;;;;5051905;28;20417;-50
2021/06/23 01:20:26;;;;;;;23.83;12.80;;;19.20;99.90;;;;;;5051142;28;20377;-51
2021/06/23 01:22:52;;;;;;;21.73;13.50;;;19.20;99.90;;;;;;5051875;28;20400;-50
2021/06/23 01:25:17;;;;;;;17.50;12.80;;;19.20;99.90;;;;;;5051849;28;20416;-53
2021/06/23 01:27:46;;;;;;;19.23;12.65;;;19.20;99.90;;;;;;5051367;28;20401;-50
2021/06/23 01:30:13;;;;;;;18.30;12.05;;;19.10;99.90;;;;;;5051919;28;20384;-50
2021/06/23 01:32:39;;;;;;;22.10;13.65;;;19.10;99.90;;;;;;5050094;28;20457;-50
2021/06/23 01:35:06;;;;;;;19.63;13.07;;;19.30;99.90;;;;;;5050558;28;20463;-50
2021/06/23 01:37:31;;;;;;;25.60;13.65;;;19.20;99.90;;;;;;5050749;28;20413;-50
2021/06/23 01:39:59;;;;;;;20.58;13.23;;;19.30;99.90;;;;;;5051700;28;20463;-50
2021/06/23 01:42:25;;;;;;;18.23;12.50;;;19.30;99.90;;;;;;5050298;28;20448;-50
2021/06/23 01:44:51;;;;;;;15.33;12.10;;;19.40;99.90;;;;;;5051780;28;20732;-50
2021/06/23 01:47:16;;;;;;;21.75;13.10;;;19.50;99.90;;;;;;5051840;28;20384;-51
2021/06/23 01:49:42;;;;;;;18.77;13.13;;;19.50;99.90;;;;;;5050506;28;20382;-51
2021/06/23 01:52:07;;;;;;;22.30;14.13;;;19.40;99.90;;;;;;5051039;28;20392;-50
2021/06/23 01:54:33;;;;;;;18.23;12.95;;;19.40;99.90;;;;;;5049532;28;20378;-50
2021/06/23 01:56:59;;;;;;;20.80;13.65;;;19.40;99.90;;;;;;5050881;28;20806;-51
2021/06/23 01:59:26;;;;;;;18.00;13.67;;;19.30;99.90;;;;;;5049923;28;20788;-51
2021/06/23 02:02:03;;;;;;;19.08;13.95;;;19.30;99.90;;;;;;5048019;28;20712;-50
2021/06/23 02:04:51;;;;;;;15.07;10.95;;;19.30;99.90;;;;;;5048300;28;20425;-50
2021/06/23 02:07:28;;;;;;;19.58;11.80;;;19.40;99.90;;;;;;5039520;28;20755;-50
2021/06/23 02:10:37;;;;;;;16.00;11.20;;;19.50;99.90;;;;;;5051127;28;20382;-50
2021/06/23 02:13:27;;;;;;;18.10;13.32;;;19.50;99.90;;;;;;5051084;28;20435;-50
2021/06/23 02:15:56;;;;;;;19.67;12.75;;;19.50;99.90;;;;;;5051063;28;20394;-51
2021/06/23 02:18:25;;;;;;;17.48;12.60;;;19.30;99.90;;;;;;5050135;28;20401;-54
2021/06/23 02:20:54;;;;;;;18.60;13.32;;;19.30;99.90;;;;;;5050444;28;20385;-50
2021/06/23 02:23:21;;;;;;;19.52;13.85;;;19.10;99.90;;;;;;5036804;28;20784;-54
2021/06/23 02:25:47;;;;;;;19.10;14.25;;;19.10;99.90;;;;;;5050539;28;20443;-50
2021/06/23 02:28:13;;;;;;;20.67;13.30;;;19.00;99.90;;;;;;5050805;28;20732;-50
2021/06/23 02:30:39;;;;;;;21.45;14.15;;;19.00;99.90;;;;;;5049735;28;21284;-50
2021/06/23 02:33:08;;;;;;;20.83;13.77;;;19.10;99.90;;;;;;5050695;28;20428;-50
2021/06/23 02:35:36;;;;;;;18.90;13.02;;;19.00;99.90;;;;;;5049828;28;20397;-50
2021/06/23 02:38:03;;;;;;;20.00;13.90;;;19.10;99.90;;;;;;5050481;28;20486;-51
2021/06/23 02:40:29;;;;;;;23.83;13.73;;;19.10;99.90;;;;;;5049748;28;20397;-51
2021/06/23 02:42:55;;;;;;;20.08;14.20;;;19.10;99.90;;;;;;5050547;28;20847;-51
2021/06/23 02:45:25;;;;;;;21.25;13.60;;;19.00;99.90;;;;;;5050110;28;20377;-53
2021/06/23 02:47:51;;;;;;;20.98;14.68;;;19.00;99.90;;;;;;5050782;28;20377;-50
2021/06/23 02:50:17;;;;;;;22.23;14.20;;;18.90;99.90;;;;;;5050473;28;20382;-50
2021/06/23 02:52:43;;;;;;;23.60;16.23;;;19.00;99.90;;;;;;5049754;28;21189;-50
2021/06/23 02:55:09;;;;;;;24.80;17.00;;;18.90;99.90;;;;;;5050263;28;20408;-50
2021/06/23 02:57:36;;;;;;;24.43;16.43;;;18.90;99.90;;;;;;5048875;28;20538;-50
2021/06/23 03:00:04;;;;;;;26.60;17.30;;;18.90;99.90;;;;;;5050184;28;20476;-50
2021/06/23 03:02:30;;;;;;;25.45;17.75;;;18.90;99.90;;;;;;5049292;28;20447;-50
2021/06/23 03:04:55;;;;;;;24.52;17.90;;;19.00;99.90;;;;;;5046999;28;20900;-51
2021/06/23 03:07:22;;;;;;;22.50;16.53;;;19.10;99.90;;;;;;5049590;28;20442;-53
2021/06/23 03:09:48;;;;;;;22.33;14.60;;;19.10;99.90;;;;;;5050078;28;20388;-51
2021/06/23 03:12:16;;;;;;;22.17;13.87;;;19.10;99.90;;;;;;5049923;28;20393;-51
2021/06/23 03:14:44;;;;;;;22.20;13.35;;;19.10;99.90;;;;;;5048615;28;20627;-51
2021/06/23 03:17:10;;;;;;;21.92;14.65;;;19.00;99.90;;;;;;5049803;28;20382;-50
2021/06/23 03:19:37;;;;;;;22.50;14.80;;;19.00;99.90;;;;;;5048803;28;20735;-51
2021/06/23 03:22:04;;;;;;;21.15;13.80;;;19.00;99.90;;;;;;5049528;28;20973;-51
2021/06/23 03:24:30;;;;;;;16.67;13.10;;;19.00;99.90;;;;;;5049160;28;20465;-51
2021/06/23 03:26:55;;;;;;;19.87;13.97;;;19.10;99.90;;;;;;5049900;28;20475;-51
2021/06/23 03:29:31;;;;;;;18.20;13.90;;;19.20;99.90;;;;;;5049603;28;20382;-54
2021/06/23 03:31:57;;;;;;;18.80;12.70;;;19.30;99.90;;;;;;5049450;28;20406;-51
2021/06/23 03:34:23;;;;;;;19.97;12.53;;;19.30;99.90;;;;;;5049177;28;20408;-54
2021/06/23 03:36:49;;;;;;;17.52;12.50;;;19.30;99.90;;;;;;5049463;28;20424;-51
2021/06/23 03:39:15;;;;;;;18.23;13.35;;;19.20;99.90;;;;;;5049594;28;20827;-51
2021/06/23 03:41:40;;;;;;;19.08;12.32;;;19.30;99.90;;;;;;5048844;28;21045;-51
2021/06/23 03:44:06;;;;;;;22.23;13.53;;;19.30;99.90;;;;;;5049749;28;20373;-51
2021/06/23 03:46:32;;;;;;;18.75;12.18;;;19.30;99.90;;;;;;5048813;28;20416;-51
2021/06/23 03:48:58;;;;;;;17.85;12.90;;;19.10;99.90;;;;;;5049592;28;20888;-51
2021/06/23 03:51:24;;;;;;;18.45;13.35;;;19.10;99.90;;;;;;5048925;28;20388;-54
2021/06/23 03:53:50;;;;;;;24.00;14.23;;;19.20;99.90;;;;;;5049523;28;20855;-51
2021/06/23 03:56:16;;;;;;;18.75;14.10;;;19.30;99.90;;;;;;5049499;28;20393;-51
2021/06/23 03:58:43;;;;;;;18.55;13.40;;;19.30;99.90;;;;;;5048615;28;21082;-52
2021/06/23 04:01:09;;;;;;;16.92;13.05;;;19.30;99.90;;;;;;5049822;28;20374;-52
2021/06/23 04:03:35;;;;;;;18.60;12.52;;;19.30;99.90;;;;;;5048681;28;20464;-51
2021/06/23 04:06:01;;;;;;;17.98;13.10;;;19.50;99.90;;;;;;5048761;28;20414;-52
2021/06/23 04:08:27;;;;;;;22.25;13.80;;;19.60;99.90;;;;;;5048702;28;20385;-52
2021/06/23 04:10:52;;;;;;;20.43;13.77;;;19.60;99.90;;;;;;5049055;28;20393;-52
2021/06/23 04:13:18;;;;;;;19.27;12.87;;;19.50;99.90;;;;;;5049400;28;20452;-52
2021/06/23 04:15:44;;;;;;;22.10;13.20;;;19.40;99.90;;;;;;5050789;28;20377;-52
2021/06/23 04:18:09;;;;;;;22.23;14.02;;;19.40;99.90;;;;;;5052096;28;20500;-52
2021/06/23 04:20:35;;;;;;;18.87;13.33;;;19.30;99.90;;;;;;5052380;28;20889;-52
2021/06/23 04:23:01;;;;;;;17.92;13.30;;;19.30;99.90;;;;;;5053327;28;20931;-51
2021/06/23 04:25:27;;;;;;;20.38;14.73;;;19.10;99.90;;;;;;5052298;28;20775;-52
2021/06/23 04:27:52;;;;;;;22.07;14.57;;;19.00;99.90;;;;;;5052758;28;20732;-52
2021/06/23 04:30:18;;;;;;;21.00;13.20;;;19.10;99.90;;;;;;5052733;28;20389;-52
2021/06/23 04:32:44;;;;;;;17.70;13.15;;;19.20;99.90;;;;;;5051449;28;20389;-52
2021/06/23 04:35:11;;;;;;;16.85;10.68;;;19.30;99.90;;;;;;5052532;28;20408;-51
2021/06/23 04:37:39;;;;;;;13.68;9.65;;;19.30;99.90;;;;;;5051463;28;20421;-52
2021/06/23 04:40:08;;;;;;;15.23;10.20;;;19.40;99.90;;;;;;5052283;28;20378;-51
2021/06/23 04:42:34;;;;;;;15.40;9.35;;;19.60;99.90;;;;;;5050648;28;20398;-52
2021/06/23 04:45:00;;;;;;;13.93;7.70;;;19.70;99.90;;;;;;5051513;28;20540;-52
2021/06/23 04:47:26;;;;;;;17.65;8.40;;;19.70;99.90;;;;;;5051615;28;20457;-53
2021/06/23 04:49:52;;;;;;;12.77;7.70;;;19.80;99.90;;;;;;5051856;28;20489;-51
2021/06/23 04:52:17;;;;;;;14.70;8.43;;;19.90;99.90;;;;;;5052059;28;20408;-51
2021/06/23 04:54:43;;;;;;;13.02;8.60;;;19.90;99.90;;;;;;5051358;28;20476;-51
2021/06/23 04:57:09;;;;;;;13.10;8.65;;;19.90;99.90;;;;;;5049627;28;20457;-51
2021/06/23 04:59:35;;;;;;;12.48;7.30;;;20.00;99.90;;;;;;5051779;28;20416;-51
2021/06/23 05:02:01;;;;;;;13.73;8.70;;;20.20;99.90;;;;;;5052201;28;20840;-51
2021/06/23 05:04:26;;;;;;;12.33;8.00;;;20.30;99.90;;;;;;5051160;28;20417;-52
2021/06/23 05:06:52;;;;;;;11.10;7.10;;;20.30;99.90;;;;;;5052203;28;20431;-51
2021/06/23 05:09:17;;;;;;;11.87;7.60;;;20.20;99.90;;;;;;5052066;28;20399;-51
2021/06/23 05:11:43;;;;;;;11.70;6.95;;;20.20;99.90;;;;;;5051261;28;21000;-52
2021/06/23 05:14:10;;;;;;;11.40;7.10;;;20.30;99.90;;;;;;5051720;28;20953;-51
2021/06/23 05:16:38;;;;;;;11.45;7.25;;;20.30;99.90;;;;;;5050719;28;20923;-51
2021/06/23 05:19:05;;;;;;;10.60;6.55;;;20.20;99.90;;;;;;5051644;28;21150;-52
2021/06/23 05:21:35;;;;;;;10.70;6.00;;;20.50;99.90;;;;;;5050098;28;20397;-51
2021/06/23 05:24:02;;;;;;;9.55;6.50;;;20.70;99.90;;;;;;5051666;28;20381;-49
2021/06/23 05:26:28;;;;;;;10.10;6.00;;;21.20;99.90;;;;;;5048660;28;20389;-50
2021/06/23 05:28:54;;;;;;;8.88;5.57;;;22.30;99.90;;;;;;5051267;28;20385;-51
2021/06/23 05:31:20;;;;;;;9.80;5.20;;;23.70;99.90;;;;;;5051460;28;20438;-50
2021/06/23 05:33:45;;;;;;;9.40;4.80;;;25.10;99.90;;;;;;5048505;28;20429;-51
2021/06/23 05:36:11;;;;;;;9.70;4.60;;;25.60;99.90;;;;;;5051055;28;20460;-49
2021/06/23 05:38:37;;;;;;;8.20;4.70;;;25.80;99.90;;;;;;5049770;28;20424;-51
2021/06/23 05:41:03;;;;;;;8.73;5.20;;;25.50;99.90;;;;;;5050004;28;20390;-50
2021/06/23 05:43:28;;;;;;;9.30;5.00;;;25.00;99.90;;;;;;5050804;28;20799;-50
2021/06/23 05:45:54;;;;;;;9.63;5.50;;;24.60;99.90;;;;;;5051697;28;20636;-51
2021/06/23 05:48:20;;;;;;;9.90;5.38;;;24.30;99.90;;;;;;5051886;28;20382;-51
2021/06/23 05:50:47;;;;;;;8.48;5.05;;;23.80;99.90;;;;;;5048997;28;20847;-51
2021/06/23 05:53:12;;;;;;;7.80;5.10;;;23.60;99.90;;;;;;5047074;28;20960;-51
2021/06/23 05:55:40;;;;;;;9.00;5.10;;;23.50;99.90;;;;;;5050295;28;20420;-50
2021/06/23 05:58:05;;;;;;;10.70;5.72;;;23.10;99.90;;;;;;5050962;28;20405;-51
2021/06/23 06:00:31;;;;;;;8.20;5.13;;;23.20;99.90;;;;;;5049929;28;20448;-50
2021/06/23 06:02:57;;;;;;;10.20;5.18;;;23.20;99.90;;;;;;5050188;28;20396;-51
2021/06/23 06:05:23;;;;;;;9.00;5.85;;;23.20;99.90;;;;;;5050721;28;20782;-54
2021/06/23 06:07:52;;;;;;;9.30;5.30;;;23.10;99.90;;;;;;5049623;28;20381;-51
2021/06/23 06:10:18;;;;;;;8.52;5.40;;;22.80;99.90;;;;;;5050482;28;20389;-51
2021/06/23 06:12:44;;;;;;;8.80;5.00;;;22.90;99.90;;;;;;5050494;28;20373;-50
2021/06/23 06:15:10;;;;;;;10.57;5.20;;;23.00;99.90;;;;;;5050809;28;20451;-51
2021/06/23 06:17:36;;;;;;;9.95;5.45;;;22.90;99.90;;;;;;5050191;28;20790;-51
2021/06/23 06:20:04;;;;;;;7.88;4.70;;;22.90;99.90;;;;;;5050423;28;20886;-52
2021/06/23 06:22:30;;;;;;;8.40;5.10;;;23.10;99.90;;;;;;5049651;28;20492;-51
2021/06/23 06:24:56;;;;;;;8.20;4.85;;;23.50;99.90;;;;;;5050161;28;20457;-51
2021/06/23 06:27:22;;;;;;;10.85;5.47;;;24.20;99.90;;;;;;5050760;28;20775;-51
2021/06/23 06:29:48;;;;;;;11.82;5.80;;;24.70;99.90;;;;;;5049949;28;20381;-51
2021/06/23 06:32:13;;;;;;;8.40;5.05;;;24.90;99.90;;;;;;5050172;28;20385;-51
2021/06/23 06:34:39;;;;;;;9.33;5.50;;;25.20;99.90;;;;;;5049439;28;20397;-51
2021/06/23 06:37:04;;;;;;;9.50;5.90;;;25.10;99.90;;;;;;5049891;28;20411;-51
2021/06/23 06:39:30;;;;;;;10.83;6.47;;;24.70;99.90;;;;;;5048997;28;20478;-51
2021/06/23 06:41:56;;;;;;;10.40;6.00;;;24.10;99.90;;;;;;5050707;28;20384;-51
2021/06/23 06:44:22;;;;;;;9.90;5.60;;;23.80;99.90;;;;;;5050007;28;20393;-51
2021/06/23 06:46:48;;;;;;;8.23;5.28;;;23.90;99.90;;;;;;5049018;28;20824;-50
2021/06/23 06:49:13;;;;;;;8.80;5.33;;;23.80;99.90;;;;;;5049921;28;20386;-51
2021/06/23 06:51:41;;;;;;;10.70;6.45;;;23.90;99.90;;;;;;5048749;28;20385;-51
2021/06/23 06:54:06;;;;;;;10.90;6.50;;;23.90;99.90;;;;;;5049887;28;20413;-51
2021/06/23 06:56:32;;;;;;;10.38;6.53;;;24.20;99.90;;;;;;5049781;28;20401;-51
2021/06/23 06:58:58;;;;;;;10.80;7.70;;;24.00;99.90;;;;;;5048255;28;20748;-51
2021/06/23 07:01:23;;;;;;;12.23;7.32;;;23.60;99.90;;;;;;5050252;28;20805;-51
2021/06/23 07:03:49;;;;;;;12.90;7.53;;;23.50;99.90;;;;;;5048144;28;20784;-51
2021/06/23 07:06:15;;;;;;;11.30;7.40;;;23.10;99.90;;;;;;5049845;28;21005;-51
2021/06/23 07:08:41;;;;;;;11.40;7.97;;;23.30;99.90;;;;;;5049285;28;20473;-51
2021/06/23 07:11:06;;;;;;;11.15;7.65;;;23.60;99.90;;;;;;5048967;28;20388;-51
2021/06/23 07:13:32;;;;;;;10.45;6.38;;;24.10;99.90;;;;;;5049131;28;20381;-51
2021/06/23 07:15:57;;;;;;;12.15;6.90;;;25.50;99.90;;;;;;5049852;28;20424;-49
2021/06/23 07:18:24;;;;;;;9.60;6.40;;;26.80;99.90;;;;;;5049987;28;20413;-50
2021/06/23 07:20:49;;;;;;;9.27;6.33;;;27.70;99.90;;;;;;5049211;28;20440;-50
2021/06/23 07:23:15;;;;;;;10.10;6.80;;;28.10;99.90;;;;;;5049311;28;20843;-50
2021/06/23 07:25:41;;;;;;;9.80;5.60;;;28.70;99.90;;;;;;5048435;28;20379;-51
2021/06/23 07:28:09;;;;;;;8.63;4.83;;;29.40;99.90;;;;;;5049489;28;20472;-50
2021/06/23 07:30:35;;;;;;;10.52;4.70;;;29.60;99.90;;;;;;5048982;28;20455;-51
2021/06/23 07:33:05;;;;;;;10.63;5.90;;;30.00;99.90;;;;;;5049584;28;20381;-51
2021/06/23 07:38:32;;;;;;;9.60;5.20;;;31.40;99.90;;;;;;5006449;28;20932;-51
2021/06/23 07:41:02;;;;;;;7.73;4.67;;;32.20;99.90;;;;;;5040936;28;20477;-51
2021/06/23 07:43:28;;;;;;;9.63;5.53;;;32.60;98.20;;;;;;5048622;28;20405;-51
2021/06/23 07:45:57;;;;;;;8.52;5.75;;;33.40;97.00;;;;;;5048791;28;20417;-51
2021/06/23 07:48:38;;;;;;;7.78;4.80;;;33.30;95.70;;;;;;5044189;28;20732;-51
2021/06/23 07:51:10;;;;;;;6.90;4.15;;;33.10;95.60;;;;;;5052130;28;20381;-51
2021/06/23 07:56:09;;;;;;;7.63;4.20;;;33.30;93.50;;;;;;5053335;28;20379;-53
2021/06/23 08:09:41;;;;;;;8.70;6.90;;;29.70;98.10;;;;;;5052136;28;20393;-52
2021/06/23 08:12:25;;;;;;;9.07;7.30;;;28.90;99.90;;;;;;5053370;28;20374;-51
2021/06/23 08:14:51;;;;;;;9.27;7.20;;;28.20;99.90;;;;;;5052550;28;20381;-51
2021/06/23 08:17:17;;;;;;;8.45;6.50;;;27.70;99.90;;;;;;5053158;28;20377;-51
2021/06/23 08:19:43;;;;;;;9.90;6.15;;;27.10;99.90;;;;;;5050941;28;20902;-51
2021/06/23 08:22:11;;;;;;;11.47;5.70;;;26.60;99.90;;;;;;5053226;28;20389;-51
2021/06/23 08:24:38;;;;;;;8.52;6.20;;;26.40;99.90;;;;;;5051676;28;20410;-51
2021/06/23 08:27:08;;;;;;;8.35;6.15;;;26.30;99.90;;;;;;5052256;28;20374;-51
2021/06/23 08:29:34;;;;;;;8.40;5.60;;;27.10;99.90;;;;;;5052111;28;20452;-51
2021/06/23 08:32:00;;;;;;;10.43;6.22;;;29.00;99.90;;;;;;5052297;28;20473;-52
2021/06/23 08:34:28;;;;;;;7.55;4.55;;;31.10;99.90;;;;;;5052178;28;20409;-55
2021/06/23 08:36:54;;;;;;;7.80;3.83;;;33.40;95.20;;;;;;5052194;28;20381;-52
2021/06/23 08:39:19;;;;;;;8.02;3.50;;;33.20;93.50;;;;;;5051273;28;20506;-49
2021/06/23 08:41:45;;;;;;;9.13;3.90;;;32.50;93.80;;;;;;5051581;28;21444;-52
2021/06/23 08:44:11;;;;;;;9.23;3.97;;;31.30;95.30;;;;;;5051556;28;20389;-51
2021/06/23 08:46:38;;;;;;;8.70;5.20;;;29.80;98.80;;;;;;5051454;28;20804;-51
2021/06/23 08:49:05;;;;;;;8.05;5.50;;;29.50;99.90;;;;;;5052612;28;20389;-51
2021/06/23 08:51:31;;;;;;;8.43;6.10;;;28.90;99.90;;;;;;5051567;28;20377;-51
2021/06/23 08:53:57;;;;;;;7.60;5.75;;;27.90;99.90;;;;;;5052151;28;20369;-51
2021/06/23 08:56:23;;;;;;;10.70;5.57;;;27.20;99.90;;;;;;5052342;28;20766;-51
2021/06/23 08:58:48;;;;;;;7.47;5.00;;;26.80;99.90;;;;;;5051661;28;21163;-50
2021/06/23 09:01:14;;;;;;;9.65;6.30;;;27.00;99.90;;;;;;5051825;28;20389;-50
2021/06/23 09:04:01;;;;;;;8.02;5.80;;;27.40;99.90;;;;;;5051015;28;20891;-51
2021/06/23 09:06:45;;;;;;;8.23;5.95;;;28.00;99.90;;;;;;5051932;28;20496;-52
2021/06/23 09:09:19;;;;;;;6.97;4.55;;;29.90;99.90;;;;;;5051940;28;20905;-52
2021/06/23 09:11:49;;;;;;;7.60;3.50;;;32.10;98.50;;;;;;5029684;28;21030;-52
2021/06/23 09:14:16;;;;;;;5.50;3.13;;;33.40;95.20;;;;;;5031498;28;20390;-51
2021/06/23 09:17:07;;;;;;;7.10;4.07;;;34.90;90.10;;;;;;5031461;28;20386;-52
2021/06/23 09:19:34;;;;;;;9.10;4.40;;;35.20;84.40;;;;;;5030748;28;20780;-51
2021/06/23 09:22:00;;;;;;;6.10;3.97;;;35.50;80.70;;;;;;5032523;28;20376;-51
2021/06/23 09:24:37;;;;;;;8.10;4.40;;;35.70;80.50;;;;;;5031532;28;20398;-52
2021/06/23 09:27:22;;;;;;;7.00;4.30;;;34.20;79.30;;;;;;5031098;28;20499;-51
2021/06/23 09:29:51;;;;;;;7.30;4.10;;;32.50;83.80;;;;;;5030633;28;20462;-51
2021/06/23 09:32:18;;;;;;;7.35;3.83;;;31.40;89.30;;;;;;5031459;28;20387;-52
2021/06/23 09:34:47;;;;;;;6.70;3.80;;;31.50;90.50;;;;;;5030398;28;20426;-49
2021/06/23 09:37:33;;;;;;;7.25;3.10;;;32.80;85.80;;;;;;5031926;28;20379;-50
2021/06/23 09:40:11;;;;;;;7.20;3.50;;;34.30;81.50;;;;;;5031479;28;20390;-51
2021/06/23 09:42:48;;;;;;;8.40;3.70;;;35.40;74.80;;;;;;5030585;28;20387;-52
2021/06/23 09:45:16;;;;;;;7.18;3.00;;;36.80;70.20;;;;;;5031094;28;20407;-52
2021/06/23 09:47:45;;;;;;;6.25;3.30;;;37.10;65.90;;;;;;5030397;28;20861;-52
2021/06/23 09:50:20;;;;;;;7.05;2.83;;;36.00;67.60;;;;;;5031259;28;20470;-51
2021/06/23 09:52:58;;;;;;;6.73;3.20;;;35.20;70.00;;;;;;5030493;28;20402;-51
2021/06/23 09:55:38;;;;;;;6.55;3.30;;;34.10;71.10;;;;;;5030070;28;20394;-51
2021/06/23 09:58:11;;;;;;;6.03;3.00;;;32.50;74.10;;;;;;5016146;28;20419;-52
2021/06/23 10:01:03;;;;;;;12.52;5.50;;;31.80;79.90;;;;;;5030074;28;20793;-52
2021/06/23 10:03:50;;;;;;;6.30;3.20;;;32.10;80.10;;;;;;5028412;28;20482;-54
2021/06/23 10:06:25;;;;;;;7.00;2.60;;;32.40;76.20;;;;;;5029330;28;20438;-52
2021/06/23 10:08:52;;;;;;;6.40;2.50;;;33.20;78.30;;;;;;5029715;28;20430;-52
2021/06/23 10:11:28;;;;;;;6.00;2.80;;;32.70;79.10;;;;;;5026544;28;20434;-52
2021/06/23 10:13:53;;;;;;;6.60;2.92;;;32.40;79.10;;;;;;5029608;28;20391;-52
2021/06/23 10:16:22;;;;;;;6.30;2.70;;;32.80;75.80;;;;;;5029832;28;20462;-51
2021/06/23 10:18:48;;;;;;;5.80;2.40;;;33.90;75.10;;;;;;5028710;28;20476;-52
2021/06/23 10:21:14;;;;;;;6.70;5.70;;;32.90;72.20;;;;;;5030047;28;20395;-51
2021/06/23 10:23:41;;;;;;;7.43;4.90;;;31.80;74.10;;;;;;5026362;28;20395;-52
2021/06/23 10:26:07;;;;;;;6.72;5.32;;;31.10;77.50;;;;;;5029291;28;20454;-52
2021/06/23 10:28:35;;;;;;;6.30;4.85;;;30.00;80.00;;;;;;5029693;28;20426;-52
2021/06/23 10:31:02;;;;;;;8.20;5.28;;;29.70;84.40;;;;;;5030760;28;20429;-51
2021/06/23 10:33:34;;;;;;;7.60;5.50;;;30.50;82.30;;;;;;5030252;28;20375;-54
2021/06/23 10:36:00;;;;;;;6.93;5.20;;;31.00;78.90;;;;;;5030425;28;20521;-51
2021/06/23 10:38:27;;;;;;;7.60;4.28;;;31.20;81.60;;;;;;5029050;28;20510;-52
2021/06/23 10:40:52;;;;;;;5.93;4.00;;;31.40;81.60;;;;;;5028971;28;20391;-51
2021/06/23 10:43:21;;;;;;;6.60;3.97;;;30.80;82.50;;;;;;5029997;28;20389;-52
2021/06/23 10:45:46;;;;;;;6.20;4.45;;;30.50;84.00;;;;;;5029662;28;20391;-51
2021/06/23 10:48:12;;;;;;;4.90;3.80;;;29.90;83.50;;;;;;5029985;28;20390;-52
2021/06/23 10:50:38;;;;;;;6.57;3.87;;;29.60;83.20;;;;;;5026439;28;20435;-51
2021/06/23 10:53:28;;;;;;;5.80;4.30;;;29.70;83.00;;;;;;5026672;28;20391;-52
2021/06/23 10:55:53;;;;;;;6.50;4.13;;;30.30;83.70;;;;;;5028876;28;20389;-52
2021/06/23 10:58:29;;;;;;;5.70;4.20;;;30.80;80.30;;;;;;5029779;28;20407;-51
2021/06/23 11:01:12;;;;;;;5.88;3.65;;;30.60;78.20;;;;;;5028793;28;20379;-51
2021/06/23 11:04:02;;;;;;;6.00;4.20;;;30.40;79.30;;;;;;5026450;28;20390;-50
2021/06/23 11:06:45;;;;;;;5.60;4.50;;;29.70;80.90;;;;;;5029124;28;20410;-53
2021/06/23 11:09:19;;;;;;;6.40;4.65;;;29.50;84.20;;;;;;5029001;28;20386;-51
2021/06/23 11:11:45;;;;;;;6.70;4.60;;;29.60;82.60;;;;;;5028443;28;20430;-51
2021/06/23 11:14:16;;;;;;;5.10;3.90;;;29.80;83.10;;;;;;5029710;28;20857;-51
2021/06/23 11:16:41;;;;;;;5.38;3.92;;;29.90;82.90;;;;;;5028756;28;20757;-50
2021/06/23 11:19:09;;;;;;;5.60;4.50;;;30.20;85.50;;;;;;5030003;28;20468;-52
2021/06/23 11:21:35;;;;;;;5.45;4.07;;;30.40;80.10;;;;;;5028821;28;20402;-51
2021/06/23 11:24:03;;;;;;;5.90;5.00;;;30.60;82.80;;;;;;5029523;28;20873;-51
2021/06/23 11:26:28;;;;;;;5.20;3.90;;;30.50;82.40;;;;;;5028963;28;20394;-52
2021/06/23 11:29:09;;;;;;;5.05;3.90;;;29.70;81.90;;;;;;5029686;28;20395;-51
2021/06/23 11:31:54;;;;;;;6.53;4.35;;;29.70;84.60;;;;;;5028608;28;20379;-51
2021/06/23 11:34:56;;;;;;;5.73;4.30;;;29.60;84.20;;;;;;5029448;28;20387;-50
2021/06/23 11:37:23;;;;;;;5.03;3.65;;;29.50;83.60;;;;;;5007411;28;20412;-51
2021/06/23 11:39:49;;;;;;;5.20;3.80;;;29.80;84.20;;;;;;5024788;28;20517;-51
2021/06/23 11:42:15;;;;;;;6.20;4.55;;;29.70;83.30;;;;;;5029486;28;20710;-51
2021/06/23 11:44:43;;;;;;;5.70;4.70;;;30.00;81.00;;;;;;5028831;28;20865;-52
2021/06/23 11:47:09;;;;;;;5.13;3.80;;;30.40;81.10;;;;;;5029574;28;20521;-51
2021/06/23 11:49:36;;;;;;;6.45;4.30;;;30.50;80.90;;;;;;5028130;28;20465;-51
2021/06/23 11:52:03;;;;;;;5.20;3.90;;;30.70;78.50;;;;;;5029614;28;20380;-52
2021/06/23 11:54:29;;;;;;;5.70;4.00;;;30.70;76.90;;;;;;5029565;28;20383;-54
2021/06/23 11:56:55;;;;;;;6.13;3.47;;;31.00;78.20;;;;;;5028911;28;20379;-52
2021/06/23 11:59:21;;;;;;;5.32;3.95;;;31.20;75.60;;;;;;5029162;28;20779;-52
2021/06/23 12:01:47;;;;;;;5.53;3.80;;;31.00;73.50;;;;;;5028635;28;20394;-52
2021/06/23 12:04:14;;;;;;;5.20;3.40;;;31.20;75.30;;;;;;5029203;28;20391;-52
2021/06/23 12:06:39;;;;;;;5.00;3.58;;;31.20;71.20;;;;;;5028634;28;20858;-53
2021/06/23 12:09:05;;;;;;;5.00;3.70;;;30.90;73.40;;;;;;5029490;28;20413;-53
2021/06/23 12:11:31;;;;;;;4.90;3.70;;;30.70;75.30;;;;;;5027510;28;20406;-52
2021/06/23 12:13:56;;;;;;;6.40;4.43;;;30.10;72.40;;;;;;5029428;28;20418;-50
2021/06/23 12:16:22;;;;;;;5.50;3.60;;;29.60;73.70;;;;;;5029107;28;20383;-51
2021/06/23 12:18:48;;;;;;;5.90;4.20;;;29.40;75.10;;;;;;5028089;28;20496;-51
2021/06/23 12:21:13;;;;;;;5.40;3.80;;;29.60;75.40;;;;;;5029417;28;20398;-51
2021/06/23 12:23:39;;;;;;;5.15;4.20;;;29.90;75.70;;;;;;5028562;28;20442;-51
2021/06/23 12:26:05;;;;;;;4.80;3.70;;;29.90;74.60;;;;;;5028803;28;20411;-51
2021/06/23 12:28:30;;;;;;;4.82;3.92;;;29.90;73.70;;;;;;5028725;28;20884;-54
2021/06/23 12:30:56;;;;;;;4.65;3.80;;;28.80;72.90;;;;;;5028577;28;20446;-51
2021/06/23 12:33:22;;;;;;;4.95;3.90;;;29.10;73.40;;;;;;5029305;28;20387;-52
2021/06/23 12:35:47;;;;;;;4.55;3.47;;;29.00;74.40;;;;;;5029289;28;20387;-51
2021/06/23 12:38:18;;;;;;;5.18;4.38;;;29.00;73.00;;;;;;5032824;28;20406;-51
2021/06/23 12:40:44;;;;;;;7.80;7.07;;;28.90;73.60;;;;;;5031800;28;20399;-51
2021/06/23 12:43:14;;;;;;;4.47;1.38;;;29.10;71.20;;;;;;5033236;28;20376;-51
2021/06/23 12:45:43;;;;;;;4.20;1.23;;;29.10;72.90;;;;;;5032303;28;20777;-51
2021/06/23 12:48:09;;;;;;;4.35;0.90;;;29.20;69.70;;;;;;5032609;28;20402;-51
2021/06/23 12:50:35;;;;;;;4.20;1.42;;;29.30;70.60;;;;;;5031428;28;20383;-53
2021/06/23 12:53:01;;;;;;;5.00;1.70;;;29.40;75.00;;;;;;5032979;28;20433;-52
2021/06/23 12:55:26;;;;;;;4.90;2.10;;;29.60;79.70;;;;;;5033231;28;20398;-51
2021/06/23 12:57:52;;;;;;;4.93;2.15;;;29.80;81.00;;;;;;5031864;28;20438;-52
2021/06/23 13:00:20;;;;;;;4.68;2.10;;;29.60;82.90;;;;;;5032337;28;20434;-51